createdAt,value
2023-09-08T00:03:29.595Z,4.40
2023-09-08T00:08:33.760Z,4.30
2023-09-08T00:13:36.708Z,4.32
2023-09-08T00:18:39.385Z,4.83
2023-09-08T00:23:43.457Z,4.60
2023-09-08T00:28:46.075Z,4.82
2023-09-08T00:33:48.746Z,4.57
2023-09-08T00:38:53.030Z,4.80
2023-09-08T00:43:55.568Z,4.60
2023-09-08T00:48:58.198Z,4.70
2023-09-08T00:54:02.168Z,4.82
2023-09-08T00:59:05.992Z,4.93
2023-09-08T01:04:08.701Z,5.00
2023-09-08T01:09:13.722Z,5.10
2023-09-08T01:14:19.671Z,5.25
2023-09-08T01:19:22.996Z,4.22
2023-09-08T01:24:40.141Z,4.88
2023-09-08T01:29:45.943Z,4.93
2023-09-08T01:34:48.488Z,5.28
2023-09-08T01:39:50.985Z,5.30
2023-09-08T01:44:54.879Z,5.93
2023-09-08T01:49:57.449Z,5.55
2023-09-08T01:55:00.020Z,5.03
2023-09-08T02:00:04.040Z,5.25
2023-09-08T02:05:07.119Z,5.70
2023-09-08T02:10:11.175Z,5.93
2023-09-08T02:15:15.344Z,6.10
2023-09-08T02:20:18.047Z,5.93
2023-09-08T02:25:20.570Z,5.78
2023-09-08T02:30:24.495Z,6.18
2023-09-08T02:35:27.174Z,5.78
2023-09-08T02:40:29.892Z,5.72
2023-09-08T02:45:36.233Z,5.97
2023-09-08T02:50:39.157Z,6.28
2023-09-08T02:55:41.773Z,6.25
2023-09-08T03:00:45.672Z,6.13
2023-09-08T03:05:48.523Z,6.47
2023-09-08T03:10:51.453Z,5.83
2023-09-08T03:15:55.720Z,6.30
2023-09-08T03:20:58.457Z,5.53
2023-09-08T03:26:01.051Z,5.47
2023-09-08T03:31:07.342Z,6.13
2023-09-08T03:36:10.302Z,5.60
2023-09-08T03:41:12.967Z,5.67
2023-09-08T03:46:16.904Z,5.38
2023-09-08T03:51:19.616Z,5.50
2023-09-08T03:56:22.604Z,5.78
2023-09-08T04:01:26.672Z,6.00
2023-09-08T04:06:29.521Z,5.20
2023-09-08T04:11:32.048Z,5.97
2023-09-08T04:16:35.945Z,4.82
2023-09-08T04:21:38.614Z,5.72
2023-09-08T04:26:41.345Z,6.25
2023-09-08T04:31:45.317Z,6.18
2023-09-08T04:36:47.933Z,6.57
2023-09-08T04:41:50.538Z,6.40
2023-09-08T04:46:54.731Z,6.35
2023-09-08T04:51:57.401Z,6.93
2023-09-08T04:57:11.876Z,6.72
2023-09-08T05:02:24.243Z,6.72
2023-09-08T05:07:26.874Z,6.63
2023-09-08T05:12:29.556Z,6.72
2023-09-08T05:17:33.537Z,6.75
2023-09-08T05:22:36.240Z,6.53
2023-09-08T05:27:39.277Z,7.50
2023-09-08T05:32:43.245Z,7.20
2023-09-08T05:37:45.785Z,6.97
2023-09-08T05:42:50.599Z,6.95
2023-09-08T05:47:54.543Z,6.47
2023-09-08T05:52:57.192Z,6.53
2023-09-08T05:57:59.768Z,6.70
2023-09-08T06:03:03.801Z,7.40
2023-09-08T06:08:07.955Z,7.05
2023-09-08T06:13:11.387Z,7.30
2023-09-08T06:18:15.317Z,7.15
2023-09-08T06:23:17.866Z,8.35
2023-09-08T06:28:20.445Z,7.03
2023-09-08T06:33:24.566Z,7.63
2023-09-08T06:38:27.250Z,7.45
2023-09-08T06:43:29.774Z,6.63
2023-09-08T06:48:34.110Z,6.77
2023-09-08T06:54:01.644Z,6.82
2023-09-08T06:59:04.341Z,7.28
2023-09-08T07:09:10.939Z,7.35
2023-09-08T07:14:13.591Z,7.20
2023-09-08T07:19:16.216Z,7.55
2023-09-08T07:24:20.223Z,7.88
2023-09-08T07:29:22.799Z,8.10
2023-09-08T07:34:25.297Z,7.50
2023-09-08T07:39:29.262Z,7.97
2023-09-08T07:44:31.873Z,7.63
2023-09-08T07:49:35.247Z,7.07
2023-09-08T07:54:39.236Z,7.60
2023-09-08T07:59:41.832Z,7.53
2023-09-08T08:04:44.436Z,9.23
2023-09-08T08:09:48.476Z,7.85
2023-09-08T08:14:52.198Z,11.75
2023-09-08T08:19:54.819Z,8.82
2023-09-08T08:24:58.778Z,7.20
2023-09-08T08:30:02.522Z,7.75
2023-09-08T08:35:06.672Z,8.52
2023-09-08T08:40:11.872Z,8.40
2023-09-08T08:45:15.289Z,8.45
2023-09-08T08:50:19.082Z,7.63
2023-09-08T08:55:23.870Z,10.85
2023-09-08T09:00:26.476Z,7.22
2023-09-08T09:05:29.192Z,8.05
2023-09-08T09:10:33.833Z,7.65
2023-09-08T09:15:36.499Z,8.10
2023-09-08T09:20:39.320Z,8.20
2023-09-08T09:25:44.639Z,7.95
2023-09-08T09:30:52.187Z,8.10
2023-09-08T09:35:55.839Z,7.15
2023-09-08T09:40:59.791Z,8.18
2023-09-08T09:46:03.279Z,8.57
2023-09-08T09:51:17.216Z,8.30
2023-09-08T09:56:22.297Z,7.38
2023-09-08T10:01:25.264Z,8.55
2023-09-08T10:06:27.849Z,7.80
2023-09-08T10:11:34.958Z,8.98
2023-09-08T10:16:38.560Z,8.02
2023-09-08T10:21:42.813Z,7.78
2023-09-08T10:26:49.020Z,8.10
2023-09-08T10:31:52.442Z,7.63
2023-09-08T10:36:55.182Z,7.85
2023-09-08T10:42:12.767Z,7.78
2023-09-08T10:47:16.897Z,7.40
2023-09-08T10:52:22.821Z,7.00
2023-09-08T10:57:26.027Z,7.05
2023-09-08T11:02:37.271Z,7.43
2023-09-08T11:07:40.425Z,6.32
2023-09-08T11:12:43.154Z,6.80
2023-09-08T11:17:51.876Z,6.78
2023-09-08T11:22:54.601Z,7.05
2023-09-08T11:27:57.286Z,7.45
2023-09-08T11:33:01.824Z,6.72
2023-09-08T11:38:06.001Z,7.85
2023-09-08T11:43:08.688Z,7.07
2023-09-08T11:48:12.699Z,7.68
2023-09-08T11:53:20.756Z,6.57
2023-09-08T11:58:23.457Z,6.45
2023-09-08T12:03:27.593Z,6.25
2023-09-08T12:08:30.394Z,6.90
2023-09-08T12:13:32.969Z,6.80
2023-09-08T12:18:46.258Z,6.95
2023-09-08T12:23:49.264Z,6.43
2023-09-08T12:28:52.313Z,6.20
2023-09-08T12:33:56.238Z,6.25
2023-09-08T12:38:59.139Z,5.70
2023-09-08T12:44:01.816Z,6.28
2023-09-08T12:49:06.687Z,5.93
2023-09-08T12:54:10.513Z,6.10
2023-09-08T12:59:13.179Z,5.70
2023-09-08T13:04:17.195Z,6.10
2023-09-08T13:09:19.960Z,5.68
2023-09-08T13:14:22.591Z,5.88
2023-09-08T13:19:26.544Z,5.75
2023-09-08T13:24:29.180Z,5.80
2023-09-08T13:29:31.901Z,5.95
2023-09-08T13:34:35.969Z,6.40
2023-09-08T13:39:38.876Z,5.70
2023-09-08T13:44:42.202Z,5.72
2023-09-08T13:49:47.853Z,5.60
2023-09-08T13:55:06.888Z,5.97
2023-09-08T14:00:24.968Z,5.57
2023-09-08T14:05:35.292Z,5.13
2023-09-08T14:10:42.930Z,5.50
2023-09-08T14:15:55.367Z,4.85
2023-09-08T14:20:59.363Z,5.63
2023-09-08T14:26:02.363Z,4.90
2023-09-08T14:31:05.046Z,5.30
2023-09-08T14:36:09.374Z,5.80
2023-09-08T14:41:12.004Z,4.80
2023-09-08T14:46:14.712Z,6.03
2023-09-08T14:51:18.920Z,5.40
2023-09-08T14:56:22.852Z,4.90
2023-09-08T15:01:25.563Z,5.13
2023-09-08T15:06:29.555Z,5.15
2023-09-08T15:11:32.137Z,5.57
2023-09-08T15:16:34.782Z,5.10
2023-09-08T15:21:39.789Z,5.50
2023-09-08T15:26:42.433Z,5.32
2023-09-08T15:31:45.151Z,5.05
2023-09-08T15:36:50.612Z,5.60
2023-09-08T15:41:53.181Z,5.30
2023-09-08T15:46:55.819Z,5.60
2023-09-08T15:52:13.581Z,5.30
2023-09-08T15:57:18.828Z,5.40
2023-09-08T16:02:21.468Z,5.90
2023-09-08T16:07:25.668Z,7.63
2023-09-08T16:12:28.274Z,5.95
2023-09-08T16:17:31.034Z,5.95
2023-09-08T16:22:35.139Z,8.00
2023-09-08T16:27:37.984Z,6.15
2023-09-08T16:32:41.200Z,6.03
2023-09-08T16:37:45.322Z,6.75
2023-09-08T16:42:48.016Z,6.15
2023-09-08T16:47:51.001Z,6.53
2023-09-08T16:52:55.060Z,6.63
2023-09-08T16:57:57.923Z,6.53
2023-09-08T17:03:00.735Z,6.15
2023-09-08T17:08:05.070Z,6.25
2023-09-08T17:13:07.718Z,6.60
2023-09-08T17:18:10.438Z,6.30
2023-09-08T17:23:14.634Z,6.53
2023-09-08T17:28:17.243Z,6.85
2023-09-08T17:43:26.729Z,6.70
2023-09-08T17:48:29.464Z,7.40
2023-09-08T17:58:40.962Z,6.47
2023-09-08T18:03:44.278Z,6.75
2023-09-08T18:08:47.117Z,7.40
2023-09-08T18:18:54.592Z,6.95
2023-09-08T18:23:57.302Z,6.75
2023-09-08T18:29:00.011Z,6.93
2023-09-08T18:34:03.980Z,6.80
2023-09-08T18:39:06.925Z,7.50
2023-09-08T18:44:10.058Z,7.10
2023-09-08T18:49:17.275Z,7.28
2023-09-08T18:54:19.968Z,7.40
2023-09-08T18:59:22.573Z,7.63
2023-09-08T19:04:26.674Z,7.00
2023-09-08T19:09:29.359Z,7.65
2023-09-08T19:14:32.124Z,7.75
2023-09-08T19:19:36.154Z,7.78
2023-09-08T19:24:38.801Z,8.55
2023-09-08T19:29:41.455Z,8.43
2023-09-08T19:34:45.639Z,7.90
2023-09-08T19:39:48.569Z,8.38
2023-09-08T19:44:51.213Z,8.90
2023-09-08T19:49:55.222Z,12.38
2023-09-08T19:54:57.947Z,10.20
2023-09-08T20:00:00.493Z,9.82
2023-09-08T20:05:04.722Z,9.73
2023-09-08T20:10:08.330Z,9.95
2023-09-08T20:15:11.423Z,11.38
2023-09-08T20:20:15.617Z,13.07
2023-09-08T20:25:18.241Z,8.77
2023-09-08T20:30:21.687Z,9.70
2023-09-08T20:35:25.685Z,9.27
2023-09-08T20:40:28.263Z,10.77
2023-09-08T20:45:31.157Z,9.32
2023-09-08T20:50:35.218Z,17.30
2023-09-08T20:55:37.926Z,9.77
2023-09-08T21:00:40.530Z,10.35
2023-09-08T21:05:44.645Z,13.20
2023-09-08T21:10:47.672Z,15.48
2023-09-08T21:15:50.567Z,10.98
2023-09-08T21:20:54.545Z,10.73
2023-09-08T21:25:57.143Z,20.50
2023-09-08T21:31:08.424Z,10.43
2023-09-08T21:36:15.755Z,10.93
2023-09-08T21:41:18.534Z,11.68
2023-09-08T21:46:21.143Z,10.70
2023-09-08T21:51:25.134Z,12.40
2023-09-08T21:56:27.800Z,13.75
2023-09-08T22:01:30.408Z,15.40
2023-09-08T22:06:34.428Z,14.23
2023-09-08T22:11:36.990Z,10.93
2023-09-08T22:16:39.576Z,11.10
2023-09-08T22:21:45.417Z,10.67
2023-09-08T22:26:48.047Z,13.55
2023-09-08T22:31:50.871Z,11.27
2023-09-08T22:36:54.865Z,10.60
2023-09-08T22:41:57.402Z,9.18
2023-09-08T22:46:59.993Z,11.10
2023-09-08T22:52:04.506Z,10.20
2023-09-08T22:57:07.123Z,10.00
2023-09-08T23:02:09.794Z,14.97
2023-09-08T23:07:14.380Z,10.30
2023-09-08T23:12:16.972Z,10.65
2023-09-08T23:17:19.540Z,10.70
2023-09-08T23:22:23.721Z,10.73
2023-09-08T23:27:26.295Z,10.15
2023-09-08T23:32:29.103Z,10.57
2023-09-08T23:37:35.007Z,10.25
2023-09-08T23:42:37.622Z,10.10
2023-09-08T23:47:40.646Z,10.10
2023-09-08T23:52:44.685Z,9.77
2023-09-08T23:57:47.326Z,10.38
